Time;durP1;ratioP1;P1;durP2;ratioP2;P2;SDS_P1;SDS_P2;PMS_P1;PMS_P2;Temp;Humidity;BMP_temperature;BMP_pressure;BME280_temperature;BME280_humidity;BME280_pressure;Samples;Min_cycle;Max_cycle;Signal;HPM_P1;HPM_P2
2023/05/15 00:00:05;;;;;;;7.05;4.80;;;;;;;;;;4992392;28;20398;-80
2023/05/15 00:02:32;;;;;;;7.10;4.93;;;;;;;;;;4956228;28;20593;-80
2023/05/15 00:04:57;;;;;;;10.63;5.60;;;;;;;;;;4994290;28;20037;-80
2023/05/15 00:07:23;;;;;;;8.60;5.53;;;;;;;;;;4984162;28;20049;-80
2023/05/15 00:09:48;;;;;;;8.40;5.13;;;;;;;;;;4977771;28;20026;-80
2023/05/15 00:12:14;;;;;;;7.22;5.20;;;;;;;;;;4990511;28;20610;-81
2023/05/15 00:14:39;;;;;;;7.93;5.35;;;;;;;;;;4991950;28;20478;-80
2023/05/15 00:17:05;;;;;;;8.65;5.30;;;;;;;;;;4973739;28;20449;-80
2023/05/15 00:19:30;;;;;;;8.85;5.20;;;;;;;;;;4976183;28;20035;-81
2023/05/15 00:21:56;;;;;;;8.02;5.28;;;;;;;;;;4974160;28;20062;-81
2023/05/15 00:24:21;;;;;;;8.68;5.25;;;;;;;;;;4994437;28;20042;-80
2023/05/15 00:26:46;;;;;;;8.57;5.20;;;;;;;;;;4974163;28;20500;-81
2023/05/15 00:29:12;;;;;;;9.02;5.20;;;;;;;;;;4956604;28;20053;-81
2023/05/15 00:31:37;;;;;;;8.55;5.88;;;;;;;;;;4963032;28;20076;-81
2023/05/15 00:34:02;;;;;;;11.00;5.68;;;;;;;;;;4977606;28;20031;-80
2023/05/15 00:36:28;;;;;;;7.40;5.22;;;;;;;;;;4991400;28;20037;-79
2023/05/15 00:38:53;;;;;;;11.25;5.80;;;;;;;;;;4959669;28;20087;-80
2023/05/15 00:41:20;;;;;;;8.07;5.50;;;;;;;;;;4973870;28;20034;-80
2023/05/15 00:43:46;;;;;;;13.75;5.55;;;;;;;;;;4975580;28;20477;-80
2023/05/15 00:46:12;;;;;;;9.32;5.80;;;;;;;;;;4989943;28;20691;-80
2023/05/15 00:48:38;;;;;;;7.32;5.30;;;;;;;;;;4990344;28;20049;-80
2023/05/15 00:51:04;;;;;;;10.45;5.90;;;;;;;;;;4989489;28;20041;-80
2023/05/15 00:53:29;;;;;;;11.50;5.60;;;;;;;;;;4975259;28;20038;-79
2023/05/15 00:55:57;;;;;;;11.55;5.68;;;;;;;;;;4995070;28;20044;-81
2023/05/15 00:58:23;;;;;;;8.07;5.72;;;;;;;;;;4976067;28;20561;-80
2023/05/15 01:00:49;;;;;;;10.98;5.80;;;;;;;;;;4974762;28;20707;-81
2023/05/15 01:03:14;;;;;;;8.85;5.38;;;;;;;;;;4975471;28;20041;-80
2023/05/15 01:05:43;;;;;;;10.30;5.95;;;;;;;;;;4975398;28;20093;-81
2023/05/15 01:08:22;;;;;;;9.48;5.85;;;;;;;;;;4991979;28;20037;-80
2023/05/15 01:10:51;;;;;;;8.82;6.05;;;;;;;;;;4990665;28;20158;-80
2023/05/15 01:13:18;;;;;;;10.90;6.35;;;;;;;;;;4991604;28;20084;-81
2023/05/15 01:15:44;;;;;;;;;;;;;;;;;;4991654;28;20763;-81
2023/05/15 01:18:09;;;;;;;10.77;6.00;;;;;;;;;;4975750;28;19918;-81
2023/05/15 01:20:57;;;;;;;8.40;6.05;;;;;;;;;;4974774;28;20035;-81
2023/05/15 01:23:55;;;;;;;8.55;6.03;;;;;;;;;;4951512;28;20056;-81
2023/05/15 01:26:39;;;;;;;8.52;5.78;;;;;;;;;;4991491;28;20093;-81
2023/05/15 01:29:08;;;;;;;9.10;6.03;;;;;;;;;;4994139;28;20041;-81
2023/05/15 01:31:34;;;;;;;10.70;6.63;;;;;;;;;;4974985;28;20497;-81
2023/05/15 01:34:02;;;;;;;8.73;5.97;;;;;;;;;;4977086;28;20039;-80
2023/05/15 01:36:35;;;;;;;8.55;6.32;;;;;;;;;;4974847;28;20762;-81
2023/05/15 01:39:02;;;;;;;11.93;6.40;;;;;;;;;;4975630;28;20369;-81
2023/05/15 01:41:28;;;;;;;11.23;6.57;;;;;;;;;;4994731;28;20411;-80
2023/05/15 01:44:15;;;;;;;10.35;6.32;;;;;;;;;;4976027;28;20038;-81
2023/05/15 01:46:45;;;;;;;10.15;6.13;;;;;;;;;;4991581;28;20030;-81
2023/05/15 01:49:13;;;;;;;9.77;6.05;;;;;;;;;;4975576;28;20493;-80
2023/05/15 01:51:39;;;;;;;10.00;6.00;;;;;;;;;;4975818;28;20489;-81
2023/05/15 01:54:06;;;;;;;11.07;6.22;;;;;;;;;;4990946;28;20516;-80
2023/05/15 01:56:31;;;;;;;9.73;6.70;;;;;;;;;;4979689;28;20436;-80
2023/05/15 01:58:59;;;;;;;9.35;6.25;;;;;;;;;;4970858;28;20033;-80
2023/05/15 02:01:25;;;;;;;10.88;6.22;;;;;;;;;;4996063;28;20044;-81
2023/05/15 02:03:51;;;;;;;10.38;6.53;;;;;;;;;;4993083;28;20379;-81
2023/05/15 02:06:17;;;;;;;10.93;6.85;;;;;;;;;;4977629;28;20041;-81
2023/05/15 02:08:43;;;;;;;9.57;6.07;;;;;;;;;;4980118;28;20034;-81
2023/05/15 02:11:09;;;;;;;9.57;6.60;;;;;;;;;;4995683;28;20034;-80
2023/05/15 02:13:35;;;;;;;11.70;6.75;;;;;;;;;;4976769;28;20045;-81
2023/05/15 02:16:00;;;;;;;8.57;6.55;;;;;;;;;;4976609;28;20030;-81
2023/05/15 02:18:27;;;;;;;10.52;6.90;;;;;;;;;;4997137;28;20060;-80
2023/05/15 02:20:53;;;;;;;10.65;6.65;;;;;;;;;;4961505;28;20057;-81
2023/05/15 02:23:20;;;;;;;9.15;6.72;;;;;;;;;;4976707;28;20046;-79
2023/05/15 02:26:12;;;;;;;11.73;6.90;;;;;;;;;;4972773;28;20464;-80
2023/05/15 02:28:47;;;;;;;9.70;6.43;;;;;;;;;;4975592;28;20483;-81
2023/05/15 02:31:38;;;;;;;10.00;6.40;;;;;;;;;;4957577;28;20034;-81
2023/05/15 02:34:14;;;;;;;10.77;6.80;;;;;;;;;;4977325;28;20038;-81
2023/05/15 02:36:41;;;;;;;9.10;6.63;;;;;;;;;;4973983;28;20034;-82
2023/05/15 02:39:06;;;;;;;11.68;6.72;;;;;;;;;;4991201;28;20027;-82
2023/05/15 02:41:33;;;;;;;9.35;6.68;;;;;;;;;;4973215;28;20069;-81
2023/05/15 02:43:59;;;;;;;8.65;6.50;;;;;;;;;;4976066;28;20658;-81
2023/05/15 02:46:25;;;;;;;9.50;6.43;;;;;;;;;;4975556;28;20375;-81
2023/05/15 02:48:51;;;;;;;9.85;6.63;;;;;;;;;;4976536;28;20399;-81
2023/05/15 02:51:16;;;;;;;10.75;7.03;;;;;;;;;;4958581;28;20159;-81
2023/05/15 02:53:42;;;;;;;9.07;6.55;;;;;;;;;;4975581;28;20027;-81
2023/05/15 02:56:08;;;;;;;9.27;6.55;;;;;;;;;;4971856;28;20053;-80
2023/05/15 02:58:33;;;;;;;9.52;6.50;;;;;;;;;;4990132;28;20034;-80
2023/05/15 03:00:59;;;;;;;8.68;6.38;;;;;;;;;;4973429;28;20418;-80
2023/05/15 03:03:24;;;;;;;10.15;7.50;;;;;;;;;;4975149;28;20046;-81
2023/05/15 03:05:51;;;;;;;13.00;7.22;;;;;;;;;;4976127;28;20490;-81
2023/05/15 03:08:16;;;;;;;9.25;6.35;;;;;;;;;;4972864;28;20134;-81
2023/05/15 03:10:42;;;;;;;11.00;6.40;;;;;;;;;;4990674;28;20546;-81
2023/05/15 03:13:07;;;;;;;9.77;7.15;;;;;;;;;;4976270;28;20042;-80
2023/05/15 03:15:33;;;;;;;12.00;7.45;;;;;;;;;;4975724;28;20083;-80
2023/05/15 03:17:58;;;;;;;9.20;6.60;;;;;;;;;;4974020;28;20030;-80
2023/05/15 03:20:24;;;;;;;11.07;7.10;;;;;;;;;;4988469;28;20089;-80
2023/05/15 03:22:49;;;;;;;12.45;7.65;;;;;;;;;;4975441;28;20027;-81
2023/05/15 03:25:14;;;;;;;12.65;7.20;;;;;;;;;;4974738;28;20045;-79
2023/05/15 03:27:40;;;;;;;12.20;7.18;;;;;;;;;;4993451;28;20038;-80
2023/05/15 03:30:06;;;;;;;11.77;7.38;;;;;;;;;;4978196;28;20057;-81
2023/05/15 03:32:31;;;;;;;10.65;6.93;;;;;;;;;;4974576;28;20037;-80
2023/05/15 03:34:57;;;;;;;10.57;7.03;;;;;;;;;;4971177;28;20038;-80
2023/05/15 03:37:22;;;;;;;9.88;6.95;;;;;;;;;;4991528;28;20148;-81
2023/05/15 03:39:47;;;;;;;11.63;7.50;;;;;;;;;;4993050;28;20039;-80
2023/05/15 03:42:13;;;;;;;10.10;6.90;;;;;;;;;;4976296;28;20030;-80
2023/05/15 03:44:38;;;;;;;11.95;8.07;;;;;;;;;;4975452;28;20378;-80
2023/05/15 03:47:04;;;;;;;11.02;7.25;;;;;;;;;;4956644;28;20039;-80
2023/05/15 03:49:29;;;;;;;9.65;7.20;;;;;;;;;;4978895;28;20042;-79
2023/05/15 03:51:55;;;;;;;11.25;7.35;;;;;;;;;;4969368;28;20504;-80
2023/05/15 03:54:21;;;;;;;11.90;7.28;;;;;;;;;;4977340;28;20363;-80
2023/05/15 03:56:47;;;;;;;11.77;7.82;;;;;;;;;;4961624;28;20037;-80
2023/05/15 03:59:12;;;;;;;11.38;7.65;;;;;;;;;;4992209;28;20567;-82
2023/05/15 04:01:38;;;;;;;11.57;7.00;;;;;;;;;;4976042;28;20442;-79
2023/05/15 04:04:03;;;;;;;11.90;7.55;;;;;;;;;;4975706;28;20034;-79
2023/05/15 04:06:29;;;;;;;9.98;6.93;;;;;;;;;;4959677;28;20037;-79
2023/05/15 04:08:54;;;;;;;10.57;7.63;;;;;;;;;;4994685;28;20026;-80
2023/05/15 04:11:21;;;;;;;9.80;6.90;;;;;;;;;;4974073;28;20045;-79
2023/05/15 04:13:47;;;;;;;9.52;7.05;;;;;;;;;;4977042;28;20038;-81
2023/05/15 04:16:13;;;;;;;12.70;7.40;;;;;;;;;;4992571;28;20048;-82
2023/05/15 04:18:38;;;;;;;12.55;7.95;;;;;;;;;;4958795;28;20034;-82
2023/05/15 04:21:03;;;;;;;11.35;7.43;;;;;;;;;;4993167;28;20045;-80
2023/05/15 04:23:29;;;;;;;11.13;7.47;;;;;;;;;;4972688;28;20108;-80
2023/05/15 04:25:54;;;;;;;12.82;7.28;;;;;;;;;;4971653;28;20042;-81
2023/05/15 04:28:20;;;;;;;15.40;7.65;;;;;;;;;;4970934;28;20906;-81
2023/05/15 04:30:46;;;;;;;11.13;6.90;;;;;;;;;;4972657;28;20042;-82
2023/05/15 04:33:11;;;;;;;12.90;7.30;;;;;;;;;;4957829;28;20046;-81
2023/05/15 04:35:36;;;;;;;10.88;7.05;;;;;;;;;;4973204;28;20129;-81
2023/05/15 04:38:02;;;;;;;12.60;6.80;;;;;;;;;;4972858;28;20043;-81
2023/05/15 04:40:28;;;;;;;10.52;6.90;;;;;;;;;;4972082;28;20105;-83
2023/05/15 04:42:53;;;;;;;10.77;7.22;;;;;;;;;;4972557;28;20035;-83
2023/05/15 04:45:18;;;;;;;9.88;6.95;;;;;;;;;;4975439;28;20451;-83
2023/05/15 04:47:44;;;;;;;9.93;7.25;;;;;;;;;;4982817;28;20121;-83
2023/05/15 04:50:30;;;;;;;10.52;6.72;;;;;;;;;;4969918;28;20186;-83
2023/05/15 04:52:55;;;;;;;10.27;7.28;;;;;;;;;;4882543;29;20041;-82
2023/05/15 04:55:20;;;;;;;8.93;6.78;;;;;;;;;;4893097;29;20063;-82
2023/05/15 04:57:46;;;;;;;10.15;7.50;;;;;;;;;;4895132;29;20131;-82
2023/05/15 05:00:13;;;;;;;11.98;7.47;;;;;;;;;;4865999;29;20049;-82
2023/05/15 05:02:39;;;;;;;13.50;7.65;;;;;;;;;;4894215;29;20060;-82
2023/05/15 05:05:08;;;;;;;11.05;7.65;;;;;;;;;;4894792;29;20060;-82
2023/05/15 05:07:34;;;;;;;14.52;7.47;;;;;;;;;;4878969;29;20117;-82
2023/05/15 05:10:00;;;;;;;9.80;7.07;;;;;;;;;;4878797;29;20052;-80
2023/05/15 05:12:26;;;;;;;10.70;7.22;;;;;;;;;;4878612;29;20043;-80
2023/05/15 05:14:51;;;;;;;10.95;7.72;;;;;;;;;;4893695;29;20037;-79
2023/05/15 05:17:19;;;;;;;10.23;7.35;;;;;;;;;;4894560;29;20041;-80
2023/05/15 05:19:45;;;;;;;10.85;7.38;;;;;;;;;;4887832;29;20047;-80
2023/05/15 05:22:10;;;;;;;11.90;7.20;;;;;;;;;;4895619;29;20890;-80
2023/05/15 05:24:36;;;;;;;11.80;7.85;;;;;;;;;;4888904;29;20041;-79
2023/05/15 05:27:02;;;;;;;11.18;7.80;;;;;;;;;;4885570;29;20495;-79
2023/05/15 05:29:29;;;;;;;13.50;8.02;;;;;;;;;;4912419;28;20031;-79
2023/05/15 05:31:54;;;;;;;20.88;8.35;;;;;;;;;;4956002;28;20474;-80
2023/05/15 05:34:20;;;;;;;11.88;8.32;;;;;;;;;;4957710;28;20543;-80
2023/05/15 05:36:46;;;;;;;13.07;8.88;;;;;;;;;;4941667;28;20035;-79
2023/05/15 05:39:11;;;;;;;12.40;8.18;;;;;;;;;;4955416;28;20063;-79
2023/05/15 05:41:36;;;;;;;14.93;9.32;;;;;;;;;;4971132;28;20039;-81
2023/05/15 05:44:02;;;;;;;11.13;7.93;;;;;;;;;;4952489;28;20047;-81
2023/05/15 05:46:28;;;;;;;14.07;8.07;;;;;;;;;;4937845;28;20039;-82
2023/05/15 05:48:53;;;;;;;10.60;8.05;;;;;;;;;;4956721;28;20049;-81
2023/05/15 05:51:18;;;;;;;12.43;8.43;;;;;;;;;;4954770;28;20035;-81
2023/05/15 05:53:44;;;;;;;11.90;8.18;;;;;;;;;;4939628;28;20585;-81
2023/05/15 05:56:09;;;;;;;10.68;7.90;;;;;;;;;;4957618;28;20094;-81
2023/05/15 05:58:35;;;;;;;13.50;7.93;;;;;;;;;;4957862;28;20027;-81
2023/05/15 06:01:01;;;;;;;11.65;8.18;;;;;;;;;;4956712;28;20035;-78
2023/05/15 06:03:26;;;;;;;13.35;8.25;;;;;;;;;;4955739;28;20080;-79
2023/05/15 06:05:52;;;;;;;13.75;7.38;;;;;;;;;;4937902;28;20045;-79
2023/05/15 06:08:18;;;;;;;13.30;7.72;;;;;;;;;;4958431;28;20097;-79
2023/05/15 06:10:44;;;;;;;12.27;8.10;;;;;;;;;;4955223;28;20031;-79
2023/05/15 06:13:10;;;;;;;13.00;7.97;;;;;;;;;;4938191;28;20418;-79
2023/05/15 06:15:36;;;;;;;11.30;7.45;;;;;;;;;;4955313;28;20462;-78
2023/05/15 06:18:01;;;;;;;101.30;14.10;;;;;;;;;;4955273;28;20067;-79
2023/05/15 06:20:47;;;;;;;15.68;7.88;;;;;;;;;;4962156;28;20078;-79
2023/05/15 06:23:12;;;;;;;12.00;7.15;;;;;;;;;;4887784;29;20217;-78
2023/05/15 06:25:37;;;;;;;10.07;7.25;;;;;;;;;;4900149;29;20565;-79
2023/05/15 06:28:03;;;;;;;11.18;8.00;;;;;;;;;;4933410;28;20138;-78
2023/05/15 06:30:28;;;;;;;11.20;7.10;;;;;;;;;;4923631;29;20530;-79
2023/05/15 06:32:54;;;;;;;11.88;7.45;;;;;;;;;;4916786;29;20528;-78
2023/05/15 06:35:23;;;;;;;10.02;7.07;;;;;;;;;;4915969;29;20036;-78
2023/05/15 06:37:49;;;;;;;10.43;7.25;;;;;;;;;;4900768;29;20119;-79
2023/05/15 06:40:15;;;;;;;10.63;7.40;;;;;;;;;;4931831;28;20146;-79
2023/05/15 06:42:40;;;;;;;12.70;7.55;;;;;;;;;;4917111;29;20123;-79
2023/05/15 06:45:06;;;;;;;11.15;7.30;;;;;;;;;;4930354;28;20138;-79
2023/05/15 06:47:31;;;;;;;12.05;6.75;;;;;;;;;;4930351;28;20139;-78
2023/05/15 06:49:57;;;;;;;9.73;7.00;;;;;;;;;;4915440;29;20044;-79
2023/05/15 06:52:22;;;;;;;15.07;6.95;;;;;;;;;;4900583;29;20036;-79
2023/05/15 06:54:48;;;;;;;10.38;7.28;;;;;;;;;;4907015;29;20070;-79
2023/05/15 06:57:13;;;;;;;10.95;7.05;;;;;;;;;;4912832;29;20037;-79
2023/05/15 06:59:38;;;;;;;11.65;6.90;;;;;;;;;;4931069;28;20105;-79
2023/05/15 07:02:04;;;;;;;9.30;6.03;;;;;;;;;;4974055;28;20038;-77
2023/05/15 07:04:30;;;;;;;9.50;5.95;;;;;;;;;;4974845;28;20042;-78
2023/05/15 07:06:56;;;;;;;9.02;6.35;;;;;;;;;;4973158;28;20070;-78
2023/05/15 07:09:21;;;;;;;10.32;6.38;;;;;;;;;;4974665;28;20119;-77
2023/05/15 07:11:47;;;;;;;8.82;5.38;;;;;;;;;;4972530;28;20035;-78
2023/05/15 07:14:12;;;;;;;8.73;5.38;;;;;;;;;;4957472;28;20568;-78
2023/05/15 07:16:37;;;;;;;7.45;4.60;;;;;;;;;;4989303;28;20145;-79
2023/05/15 07:19:03;;;;;;;9.55;4.70;;;;;;;;;;4972034;28;20057;-77
2023/05/15 07:21:28;;;;;;;6.82;4.10;;;;;;;;;;4972999;28;20030;-78
2023/05/15 07:23:53;;;;;;;10.02;4.13;;;;;;;;;;4957032;28;20375;-78
2023/05/15 07:26:19;;;;;;;6.35;4.00;;;;;;;;;;4972964;28;20035;-78
2023/05/15 07:28:45;;;;;;;5.95;3.72;;;;;;;;;;4991014;28;20496;-78
2023/05/15 07:31:10;;;;;;;7.50;3.58;;;;;;;;;;4971786;28;20161;-77
2023/05/15 07:33:36;;;;;;;7.57;3.78;;;;;;;;;;4974845;28;20038;-79
2023/05/15 07:36:01;;;;;;;6.63;3.50;;;;;;;;;;4975234;28;20038;-78
2023/05/15 07:38:27;;;;;;;8.18;3.88;;;;;;;;;;4973131;28;20034;-79
2023/05/15 07:40:52;;;;;;;5.85;2.78;;;;;;;;;;4972906;28;20038;-78
2023/05/15 07:43:21;;;;;;;5.13;3.20;;;;;;;;;;4976528;28;20437;-78
2023/05/15 07:45:46;;;;;;;7.93;2.97;;;;;;;;;;4988286;28;20034;-78
2023/05/15 07:48:13;;;;;;;6.28;3.08;;;;;;;;;;4954526;28;20047;-78
2023/05/15 07:50:39;;;;;;;5.47;3.10;;;;;;;;;;4953432;28;20836;-77
2023/05/15 07:53:04;;;;;;;5.57;3.15;;;;;;;;;;4969685;28;20134;-76
2023/05/15 07:55:29;;;;;;;5.57;2.97;;;;;;;;;;4973314;28;20105;-76
2023/05/15 07:57:55;;;;;;;6.97;2.97;;;;;;;;;;4973616;28;20794;-76
2023/05/15 08:00:20;;;;;;;5.93;2.70;;;;;;;;;;4972149;28;20122;-76
2023/05/15 08:02:47;;;;;;;6.05;3.20;;;;;;;;;;4972183;28;20058;-75
2023/05/15 08:05:12;;;;;;;5.37;3.03;;;;;;;;;;4986181;28;20086;-75
2023/05/15 08:07:38;;;;;;;8.85;3.05;;;;;;;;;;4972689;28;20410;-77
2023/05/15 08:10:04;;;;;;;5.25;3.28;;;;;;;;;;4969881;28;20108;-77
2023/05/15 08:12:30;;;;;;;5.13;2.90;;;;;;;;;;4970349;28;20041;-77
2023/05/15 08:14:56;;;;;;;6.22;3.17;;;;;;;;;;4971871;28;20034;-78
2023/05/15 08:17:22;;;;;;;7.40;3.10;;;;;;;;;;4971931;28;20097;-78
2023/05/15 08:19:48;;;;;;;9.05;3.08;;;;;;;;;;4970573;28;20438;-77
2023/05/15 08:22:13;;;;;;;5.10;2.83;;;;;;;;;;4971550;28;20112;-77
2023/05/15 08:24:39;;;;;;;5.72;2.95;;;;;;;;;;4970714;28;20490;-78
2023/05/15 08:27:05;;;;;;;8.40;3.03;;;;;;;;;;4971790;28;20434;-78
2023/05/15 08:29:31;;;;;;;5.18;2.90;;;;;;;;;;4961453;28;20030;-77
2023/05/15 08:31:57;;;;;;;4.72;2.78;;;;;;;;;;4971986;28;20034;-79
2023/05/15 08:34:22;;;;;;;5.50;3.30;;;;;;;;;;4960608;28;20043;-79
2023/05/15 08:36:47;;;;;;;7.38;3.17;;;;;;;;;;4977800;28;20034;-79
2023/05/15 08:39:13;;;;;;;5.57;2.90;;;;;;;;;;4974298;28;20378;-79
2023/05/15 08:42:07;;;;;;;6.43;3.30;;;;;;;;;;4976692;28;20198;-79
2023/05/15 08:44:33;;;;;;;6.45;3.10;;;;;;;;;;4961350;28;20039;-79
2023/05/15 08:46:58;;;;;;;8.38;3.17;;;;;;;;;;4977416;28;20379;-79
2023/05/15 08:49:30;;;;;;;6.93;3.22;;;;;;;;;;4978739;28;20097;-79
2023/05/15 08:51:56;;;;;;;5.55;3.30;;;;;;;;;;4990838;28;20027;-79
2023/05/15 08:54:21;;;;;;;6.07;3.42;;;;;;;;;;4961297;28;20052;-79
2023/05/15 08:56:47;;;;;;;5.07;2.72;;;;;;;;;;4993293;28;20498;-78
2023/05/15 08:59:12;;;;;;;7.68;3.00;;;;;;;;;;4977801;28;20134;-79
2023/05/15 09:01:37;;;;;;;5.95;3.30;;;;;;;;;;4977030;28;20089;-79
2023/05/15 09:04:03;;;;;;;7.07;2.90;;;;;;;;;;4979123;28;20046;-79
2023/05/15 09:06:29;;;;;;;5.70;3.00;;;;;;;;;;4981073;28;20050;-78
2023/05/15 09:08:55;;;;;;;6.00;3.25;;;;;;;;;;4979454;28;20043;-78
2023/05/15 09:11:25;;;;;;;4.47;2.85;;;;;;;;;;4981809;28;20030;-77
2023/05/15 09:13:50;;;;;;;5.60;3.20;;;;;;;;;;4980810;28;20062;-78
2023/05/15 09:16:36;;;;;;;6.78;2.90;;;;;;;;;;4994379;28;20502;-78
2023/05/15 09:19:01;;;;;;;6.78;2.90;;;;;;;;;;4900324;29;20104;-78
2023/05/15 09:21:29;;;;;;;6.82;3.30;;;;;;;;;;4914776;29;20408;-79
2023/05/15 09:24:23;;;;;;;7.90;3.20;;;;;;;;;;4889350;29;20750;-80
2023/05/15 09:27:07;;;;;;;5.28;2.83;;;;;;;;;;4902749;29;20068;-79
2023/05/15 09:29:34;;;;;;;6.13;3.40;;;;;;;;;;4889893;29;20133;-80
2023/05/15 09:32:03;;;;;;;6.43;2.92;;;;;;;;;;4898404;29;20037;-80
2023/05/15 09:34:33;;;;;;;6.35;3.28;;;;;;;;;;4899819;29;20041;-79
2023/05/15 09:37:01;;;;;;;4.68;2.78;;;;;;;;;;4898809;29;20518;-79
2023/05/15 09:39:26;;;;;;;7.93;3.15;;;;;;;;;;4903227;29;20036;-80
2023/05/15 09:41:52;;;;;;;6.72;3.10;;;;;;;;;;4913702;29;20439;-80
2023/05/15 09:44:25;;;;;;;7.00;3.45;;;;;;;;;;4894470;29;20036;-79
2023/05/15 09:46:51;;;;;;;6.90;3.08;;;;;;;;;;4873122;29;20071;-79
2023/05/15 09:49:17;;;;;;;4.72;3.10;;;;;;;;;;4901970;29;20491;-80
2023/05/15 09:51:43;;;;;;;4.78;2.83;;;;;;;;;;4886372;29;20121;-78
2023/05/15 09:54:14;;;;;;;4.95;3.30;;;;;;;;;;4888090;29;20044;-79
2023/05/15 09:56:43;;;;;;;5.68;2.88;;;;;;;;;;4968095;28;20421;-78
2023/05/15 09:59:13;;;;;;;6.65;3.00;;;;;;;;;;4991046;28;20039;-77
2023/05/15 10:01:41;;;;;;;9.82;3.30;;;;;;;;;;4977270;28;20056;-78
2023/05/15 10:04:06;;;;;;;5.93;2.65;;;;;;;;;;4994182;28;20719;-78
2023/05/15 10:06:36;;;;;;;5.97;2.70;;;;;;;;;;4996227;28;20085;-78
2023/05/15 10:09:02;;;;;;;5.53;3.15;;;;;;;;;;4975341;28;20093;-78
2023/05/15 10:11:29;;;;;;;4.95;2.83;;;;;;;;;;4977153;28;20377;-78
2023/05/15 10:13:55;;;;;;;5.13;2.83;;;;;;;;;;4977746;28;20038;-79
2023/05/15 10:16:21;;;;;;;5.90;2.45;;;;;;;;;;4972598;28;20042;-78
2023/05/15 10:18:47;;;;;;;4.43;2.75;;;;;;;;;;4989286;28;20683;-78
2023/05/15 10:21:17;;;;;;;5.43;2.70;;;;;;;;;;4971016;28;20430;-77
2023/05/15 10:23:42;;;;;;;4.95;2.88;;;;;;;;;;4971497;28;20043;-79
2023/05/15 10:26:18;;;;;;;8.10;3.30;;;;;;;;;;4972513;28;20368;-78
2023/05/15 10:28:44;;;;;;;6.80;3.08;;;;;;;;;;4955227;28;20118;-79
2023/05/15 10:31:09;;;;;;;4.20;2.90;;;;;;;;;;4972731;28;20157;-78
2023/05/15 10:33:36;;;;;;;6.88;2.70;;;;;;;;;;4973128;28;20042;-78
2023/05/15 10:36:03;;;;;;;4.57;2.97;;;;;;;;;;4973831;28;20030;-77
2023/05/15 10:38:30;;;;;;;6.20;3.00;;;;;;;;;;4974441;28;20577;-78
2023/05/15 10:40:57;;;;;;;8.20;3.00;;;;;;;;;;4989484;28;20521;-79
2023/05/15 10:43:23;;;;;;;4.53;2.53;;;;;;;;;;4973487;28;21719;-78
2023/05/15 10:45:50;;;;;;;5.80;2.55;;;;;;;;;;4973177;28;20030;-78
2023/05/15 10:48:15;;;;;;;5.77;2.80;;;;;;;;;;4969268;28;20473;-79
2023/05/15 10:50:41;;;;;;;4.70;2.95;;;;;;;;;;4970389;28;20038;-78
2023/05/15 10:53:08;;;;;;;6.13;2.75;;;;;;;;;;4975119;28;20113;-79
2023/05/15 10:55:35;;;;;;;5.20;2.65;;;;;;;;;;4971442;28;20069;-78
2023/05/15 10:58:01;;;;;;;3.88;2.40;;;;;;;;;;4973953;28;20038;-78
2023/05/15 11:00:30;;;;;;;4.88;2.83;;;;;;;;;;4971376;28;20070;-80
2023/05/15 11:02:55;;;;;;;4.53;2.65;;;;;;;;;;4976244;28;20039;-79
2023/05/15 11:05:22;;;;;;;3.83;2.40;;;;;;;;;;4969625;28;20560;-79
2023/05/15 11:08:20;;;;;;;6.47;2.95;;;;;;;;;;4966168;28;20070;-79
2023/05/15 11:10:45;;;;;;;7.25;2.83;;;;;;;;;;4973786;28;20111;-79
2023/05/15 11:13:11;;;;;;;6.35;2.80;;;;;;;;;;4975391;28;20397;-79
2023/05/15 11:15:44;;;;;;;5.20;2.47;;;;;;;;;;4970662;28;20038;-79
2023/05/15 11:18:09;;;;;;;5.43;2.72;;;;;;;;;;4973050;28;20043;-79
2023/05/15 11:20:40;;;;;;;5.28;2.80;;;;;;;;;;4991078;28;20046;-79
2023/05/15 11:23:05;;;;;;;4.13;2.70;;;;;;;;;;4959532;28;20816;-79
2023/05/15 11:25:32;;;;;;;6.47;3.17;;;;;;;;;;4973653;28;20031;-78
2023/05/15 11:27:57;;;;;;;6.55;2.80;;;;;;;;;;4989822;28;20049;-79
2023/05/15 11:30:34;;;;;;;4.53;2.40;;;;;;;;;;4973839;28;20426;-79
2023/05/15 11:33:07;;;;;;;5.93;2.70;;;;;;;;;;4974485;28;20046;-79
2023/05/15 11:35:42;;;;;;;5.32;2.58;;;;;;;;;;4973977;28;20034;-79
2023/05/15 11:38:24;;;;;;;4.60;2.70;;;;;;;;;;4974631;28;20449;-80
2023/05/15 11:40:51;;;;;;;4.20;2.47;;;;;;;;;;4972959;28;20053;-79
2023/05/15 11:43:27;;;;;;;5.28;2.40;;;;;;;;;;4974431;28;20050;-79
2023/05/15 11:45:57;;;;;;;4.28;2.40;;;;;;;;;;4958633;28;20513;-79
2023/05/15 11:48:24;;;;;;;4.40;2.50;;;;;;;;;;4989502;28;20042;-79
2023/05/15 11:50:52;;;;;;;;;;;;;;;;;;4973416;28;20597;-79
2023/05/15 11:53:18;;;;;;;5.03;2.75;;;;;;;;;;4973630;28;20345;-79
2023/05/15 11:55:44;;;;;;;4.60;2.78;;;;;;;;;;4972574;28;20034;-79
2023/05/15 11:58:18;;;;;;;4.53;2.45;;;;;;;;;;4973975;28;20102;-79
2023/05/15 12:01:04;;;;;;;4.47;2.15;;;;;;;;;;4973778;28;20323;-78
2023/05/15 12:03:34;;;;;;;7.22;3.10;;;;;;;;;;4898480;29;20072;-79
2023/05/15 12:06:01;;;;;;;6.20;2.72;;;;;;;;;;4896573;29;20039;-79
2023/05/15 12:08:33;;;;;;;4.50;2.20;;;;;;;;;;4895780;29;20393;-79
2023/05/15 12:10:59;;;;;;;3.60;2.17;;;;;;;;;;4895261;29;20044;-80
2023/05/15 12:13:25;;;;;;;5.70;2.28;;;;;;;;;;4893694;29;20041;-79
2023/05/15 12:15:50;;;;;;;4.15;2.30;;;;;;;;;;4894022;29;20494;-79
2023/05/15 12:18:16;;;;;;;4.25;1.80;;;;;;;;;;4893218;29;20048;-79
2023/05/15 12:20:45;;;;;;;5.00;1.70;;;;;;;;;;4880171;29;20099;-79
2023/05/15 12:23:14;;;;;;;3.30;1.58;;;;;;;;;;4882363;29;20067;-79
2023/05/15 12:25:39;;;;;;;2.75;1.35;;;;;;;;;;4878966;29;20095;-78
2023/05/15 12:28:05;;;;;;;3.65;1.38;;;;;;;;;;4894177;29;20048;-78
2023/05/15 12:30:33;;;;;;;2.15;1.05;;;;;;;;;;4876342;29;20464;-79
2023/05/15 12:33:04;;;;;;;2.75;1.20;;;;;;;;;;4878834;29;20048;-80
2023/05/15 12:35:34;;;;;;;4.05;1.77;;;;;;;;;;4893189;29;20048;-79
2023/05/15 12:38:03;;;;;;;3.17;1.40;;;;;;;;;;4892668;29;20503;-79
2023/05/15 12:40:28;;;;;;;4.47;1.40;;;;;;;;;;4904949;28;20436;-79
2023/05/15 12:42:54;;;;;;;4.03;1.45;;;;;;;;;;4972500;28;20097;-79
2023/05/15 12:45:21;;;;;;;3.38;1.40;;;;;;;;;;4953353;28;20034;-79
2023/05/15 12:47:48;;;;;;;2.95;1.55;;;;;;;;;;4972118;28;20049;-79
2023/05/15 12:50:18;;;;;;;2.72;1.50;;;;;;;;;;4970760;28;20081;-78
2023/05/15 12:52:50;;;;;;;3.05;1.30;;;;;;;;;;4972811;28;20117;-79
2023/05/15 12:55:16;;;;;;;3.15;1.27;;;;;;;;;;4979175;28;20093;-79
2023/05/15 12:57:42;;;;;;;3.07;1.53;;;;;;;;;;4988631;28;20550;-79
2023/05/15 13:00:12;;;;;;;3.40;1.83;;;;;;;;;;4957579;28;20096;-78
2023/05/15 13:02:37;;;;;;;3.25;1.80;;;;;;;;;;4986933;28;20081;-79
2023/05/15 13:05:03;;;;;;;5.00;2.08;;;;;;;;;;4970263;28;20062;-78
2023/05/15 13:07:29;;;;;;;3.08;1.60;;;;;;;;;;4972381;28;20039;-78
2023/05/15 13:10:05;;;;;;;3.38;1.70;;;;;;;;;;4969737;28;20043;-77
2023/05/15 13:12:38;;;;;;;4.43;1.77;;;;;;;;;;4970963;28;20530;-78
2023/05/15 13:15:06;;;;;;;3.40;1.80;;;;;;;;;;4972152;28;20071;-77
2023/05/15 13:17:38;;;;;;;6.35;2.45;;;;;;;;;;4970609;28;20784;-77
2023/05/15 13:20:05;;;;;;;5.22;2.05;;;;;;;;;;4971415;28;20027;-78
2023/05/15 13:22:30;;;;;;;4.50;2.08;;;;;;;;;;4973393;28;20038;-78
2023/05/15 13:24:57;;;;;;;5.18;1.73;;;;;;;;;;4988488;28;20038;-78
2023/05/15 13:27:23;;;;;;;3.72;1.90;;;;;;;;;;4989300;28;20043;-79
2023/05/15 13:29:48;;;;;;;3.03;1.50;;;;;;;;;;4990429;28;20081;-78
2023/05/15 13:32:13;;;;;;;4.15;1.70;;;;;;;;;;4973828;28;20061;-79
2023/05/15 13:34:39;;;;;;;3.35;1.50;;;;;;;;;;4974510;28;20045;-79
2023/05/15 13:37:04;;;;;;;2.85;1.20;;;;;;;;;;4992380;28;20037;-78
2023/05/15 13:39:29;;;;;;;2.90;1.23;;;;;;;;;;4975273;28;20042;-79
2023/05/15 13:41:55;;;;;;;3.75;1.38;;;;;;;;;;4987895;28;20046;-79
2023/05/15 13:44:20;;;;;;;3.50;1.50;;;;;;;;;;4974888;28;20092;-78
2023/05/15 13:46:45;;;;;;;4.13;1.45;;;;;;;;;;4962667;28;20092;-78
2023/05/15 13:49:11;;;;;;;2.88;1.40;;;;;;;;;;4973708;28;20121;-79
2023/05/15 13:51:36;;;;;;;3.00;1.35;;;;;;;;;;4985492;28;20401;-78
2023/05/15 13:54:01;;;;;;;3.25;1.55;;;;;;;;;;4978663;28;20121;-78
2023/05/15 13:56:27;;;;;;;3.05;1.55;;;;;;;;;;4992744;28;20494;-79
2023/05/15 13:58:52;;;;;;;2.90;1.50;;;;;;;;;;4993383;28;20099;-78
2023/05/15 14:01:18;;;;;;;2.40;1.02;;;;;;;;;;4978300;28;20046;-77
2023/05/15 14:03:44;;;;;;;4.72;1.40;;;;;;;;;;4995387;28;20034;-77
2023/05/15 14:06:09;;;;;;;4.03;1.20;;;;;;;;;;4993071;28;20065;-77
2023/05/15 14:08:35;;;;;;;2.95;1.10;;;;;;;;;;4994128;28;20777;-77
2023/05/15 14:11:00;;;;;;;8.07;1.35;;;;;;;;;;4995176;28;20030;-76
2023/05/15 14:13:26;;;;;;;4.72;1.40;;;;;;;;;;4993792;28;20066;-77
2023/05/15 14:15:51;;;;;;;5.40;1.52;;;;;;;;;;4958421;28;21110;-77
2023/05/15 14:18:16;;;;;;;4.72;1.30;;;;;;;;;;4992228;28;20489;-78
2023/05/15 14:20:42;;;;;;;5.25;1.23;;;;;;;;;;4994908;28;20026;-77
2023/05/15 14:23:07;;;;;;;3.72;1.50;;;;;;;;;;4993839;28;20037;-76
2023/05/15 14:25:32;;;;;;;2.80;1.17;;;;;;;;;;4992393;28;20536;-76
2023/05/15 14:27:58;;;;;;;3.50;1.40;;;;;;;;;;4995159;28;20524;-77
2023/05/15 14:30:23;;;;;;;2.72;1.17;;;;;;;;;;4991906;28;20033;-78
2023/05/15 14:32:49;;;;;;;3.65;1.40;;;;;;;;;;4995450;28;20053;-78
2023/05/15 14:35:14;;;;;;;4.05;1.50;;;;;;;;;;4976762;28;20128;-78
2023/05/15 14:37:39;;;;;;;4.65;1.55;;;;;;;;;;4993882;28;20066;-78